createdAt,value
2019-04-22T00:01:35.020Z,5.45
2019-04-22T00:04:11.125Z,6.20
2019-04-22T00:06:59.528Z,5.85
2019-04-22T00:09:30.669Z,5.92
2019-04-22T00:12:11.225Z,6.58
2019-04-22T00:14:28.432Z,5.65
2019-04-22T00:17:07.041Z,5.62
2019-04-22T00:22:07.791Z,5.15
2019-04-22T00:24:38.139Z,5.75
2019-04-22T00:27:14.440Z,5.87
2019-04-22T00:32:19.501Z,5.40
2019-04-22T00:34:53.562Z,5.97
2019-04-22T00:37:30.062Z,5.67
2019-04-22T00:40:16.463Z,6.03
2019-04-22T00:42:28.813Z,6.12
2019-04-22T00:45:02.765Z,5.80
2019-04-22T00:50:14.524Z,5.53
2019-04-22T00:55:06.158Z,6.05
2019-04-22T00:57:32.657Z,5.87
2019-04-22T01:00:07.235Z,6.20
2019-04-22T01:02:34.685Z,5.95
2019-04-22T01:05:08.792Z,6.17
2019-04-22T01:07:40.798Z,7.17
2019-04-22T01:10:11.737Z,6.05
2019-04-22T01:12:40.084Z,5.95
2019-04-22T01:15:10.924Z,6.28
2019-04-22T01:17:39.376Z,5.53
2019-04-22T01:20:17.508Z,5.78
2019-04-22T01:22:40.124Z,4.78
2019-04-22T01:25:08.367Z,5.90
2019-04-22T01:27:34.455Z,5.50
2019-04-22T01:30:03.716Z,5.37
2019-04-22T01:32:27.302Z,5.55
2019-04-22T01:35:05.866Z,5.75
2019-04-22T01:37:43.312Z,5.50
2019-04-22T01:40:23.835Z,5.70
2019-04-22T01:42:57.559Z,5.50
2019-04-22T01:45:27.577Z,5.65
2019-04-22T01:47:51.802Z,6.00
2019-04-22T01:50:26.221Z,5.72
2019-04-22T01:52:58.646Z,5.97
2019-04-22T01:57:58.002Z,6.22
2019-04-22T02:00:25.470Z,5.70
2019-04-22T02:02:58.590Z,5.25
2019-04-22T02:05:32.394Z,5.30
2019-04-22T02:08:09.670Z,6.42
2019-04-22T02:13:11.525Z,5.78
2019-04-22T02:15:46.493Z,5.45
2019-04-22T02:18:11.030Z,6.12
2019-04-22T02:20:41.071Z,6.20
2019-04-22T02:28:45.869Z,5.10
2019-04-22T02:34:05.391Z,5.05
2019-04-22T02:36:30.412Z,6.12
2019-04-22T02:41:23.206Z,5.22
2019-04-22T02:56:27.255Z,5.58
2019-04-22T03:06:30.807Z,5.00
2019-04-22T03:09:22.400Z,4.85
2019-04-22T03:11:34.241Z,4.92
2019-04-22T03:19:02.460Z,5.62
2019-04-22T03:21:34.302Z,5.20
2019-04-22T03:24:20.470Z,5.05
2019-04-22T03:42:05.712Z,4.60
2019-04-22T03:49:37.166Z,5.67
2019-04-22T04:02:16.200Z,5.20
2019-04-22T04:07:37.114Z,4.50
2019-04-22T04:09:42.532Z,4.95
2019-04-22T04:14:46.628Z,4.30
2019-04-22T04:17:25.427Z,4.58
2019-04-22T04:19:56.741Z,4.87
2019-04-22T04:22:21.862Z,4.37
2019-04-22T04:27:41.804Z,4.83
2019-04-22T04:32:38.902Z,4.72
2019-04-22T04:37:42.629Z,4.90
2019-04-22T04:40:18.845Z,4.60
2019-04-22T04:42:43.046Z,4.90
2019-04-22T04:47:35.645Z,4.42
2019-04-22T04:50:17.698Z,4.42
2019-04-22T04:52:39.726Z,4.42
2019-04-22T04:57:33.614Z,4.45
2019-04-22T05:00:32.622Z,4.67
2019-04-22T05:02:37.331Z,4.92
2019-04-22T05:07:38.245Z,4.53
2019-04-22T05:10:14.184Z,3.90
2019-04-22T05:12:45.044Z,4.35
2019-04-22T05:15:04.195Z,4.33
2019-04-22T05:17:38.467Z,4.33
2019-04-22T05:20:13.072Z,4.35
2019-04-22T05:22:38.136Z,5.12
2019-04-22T05:25:05.529Z,4.35
2019-04-22T05:27:39.862Z,4.22
2019-04-22T05:32:38.527Z,4.67
2019-04-22T05:35:06.883Z,3.67
2019-04-22T05:40:16.308Z,4.75
2019-04-22T05:42:35.648Z,4.10
2019-04-22T05:45:10.251Z,4.30
2019-04-22T05:47:41.703Z,4.12
2019-04-22T05:50:09.458Z,4.55
2019-04-22T05:52:51.322Z,4.70
2019-04-22T05:55:28.992Z,20.90
2019-04-22T05:57:51.089Z,16.20
2019-04-22T06:00:36.986Z,12.58
2019-04-22T06:02:56.921Z,13.30
2019-04-22T06:05:32.917Z,20.20
2019-04-22T06:08:01.607Z,13.68
2019-04-22T06:10:39.406Z,14.58
2019-04-22T06:12:59.287Z,17.65
2019-04-22T06:15:31.636Z,9.53
2019-04-22T06:18:09.446Z,31.27
2019-04-22T06:20:37.370Z,16.65
2019-04-22T06:25:55.043Z,19.05
2019-04-22T06:28:15.037Z,17.00
2019-04-22T06:30:43.794Z,15.40
2019-04-22T06:35:44.320Z,16.97
2019-04-22T06:45:38.325Z,12.37
2019-04-22T06:48:19.586Z,12.85
2019-04-22T06:53:17.383Z,11.28
2019-04-22T06:55:46.975Z,10.40
2019-04-22T06:58:15.227Z,15.90
2019-04-22T07:00:44.735Z,18.40
2019-04-22T07:05:52.493Z,22.22
2019-04-22T07:10:51.469Z,26.23
2019-04-22T07:13:27.789Z,11.33
2019-04-22T07:16:11.499Z,18.60
2019-04-22T07:18:33.116Z,14.45
2019-04-22T07:26:00.319Z,15.13
2019-04-22T07:28:27.448Z,16.07
2019-04-22T07:31:06.651Z,17.17
2019-04-22T07:33:58.002Z,14.10
2019-04-22T07:36:30.627Z,13.30
2019-04-22T07:38:30.016Z,13.38
2019-04-22T07:41:01.575Z,16.87
2019-04-22T07:43:53.108Z,12.53
2019-04-22T07:46:12.012Z,10.30
2019-04-22T07:49:39.196Z,12.65
2019-04-22T07:51:07.768Z,12.25
2019-04-22T07:53:43.225Z,12.35
2019-04-22T07:56:16.544Z,12.43
2019-04-22T07:58:43.238Z,12.10
2019-04-22T08:01:18.544Z,9.48
2019-04-22T08:06:20.717Z,8.85
2019-04-22T08:08:44.790Z,10.23
2019-04-22T08:11:31.068Z,12.18
2019-04-22T08:13:49.845Z,9.05
2019-04-22T08:16:16.488Z,10.85
2019-04-22T08:18:47.271Z,9.78
2019-04-22T08:21:16.773Z,12.40
2019-04-22T08:23:50.571Z,8.15
2019-04-22T08:26:24.560Z,10.05
2019-04-22T08:29:02.290Z,10.40
2019-04-22T08:31:28.655Z,8.65
2019-04-22T08:33:54.559Z,9.35
2019-04-22T08:36:26.037Z,7.17
2019-04-22T08:41:40.341Z,6.47
2019-04-22T08:44:07.622Z,9.00
2019-04-22T08:49:02.234Z,8.40
2019-04-22T08:56:44.218Z,8.30
2019-04-22T08:59:09.787Z,7.10
2019-04-22T09:01:33.007Z,7.05
2019-04-22T09:04:10.067Z,7.72
2019-04-22T09:06:56.994Z,5.97
2019-04-22T09:09:06.520Z,6.62
2019-04-22T09:11:41.459Z,8.23
2019-04-22T09:14:11.310Z,7.22
2019-04-22T09:19:12.603Z,6.15
2019-04-22T09:21:45.472Z,8.18
2019-04-22T09:24:16.830Z,6.78
2019-04-22T09:26:47.481Z,7.50
2019-04-22T09:29:24.919Z,7.08
2019-04-22T09:31:47.869Z,6.85
2019-04-22T09:34:14.061Z,6.72
2019-04-22T09:36:50.371Z,6.80
2019-04-22T09:39:28.058Z,7.03
2019-04-22T09:44:16.521Z,5.00
2019-04-22T09:51:54.039Z,6.72
2019-04-22T09:54:31.296Z,6.83
2019-04-22T09:57:09.315Z,6.78
2019-04-22T09:59:27.140Z,5.92
2019-04-22T10:04:25.341Z,5.53
2019-04-22T10:06:59.744Z,7.12
2019-04-22T10:09:46.466Z,7.08
2019-04-22T10:11:55.317Z,5.87
2019-04-22T10:14:31.993Z,5.40
2019-04-22T10:17:04.953Z,6.25
2019-04-22T10:19:31.367Z,7.62
2019-04-22T10:22:04.525Z,6.15
2019-04-22T10:24:31.977Z,6.15
2019-04-22T10:27:02.045Z,7.25
2019-04-22T10:29:43.914Z,6.08
2019-04-22T10:32:06.686Z,6.40
2019-04-22T10:34:26.387Z,6.20
2019-04-22T10:36:44.087Z,5.58
2019-04-22T10:39:13.907Z,5.83
2019-04-22T10:41:44.294Z,6.90
2019-04-22T10:44:15.129Z,6.65
2019-04-22T10:46:44.452Z,5.62
2019-04-22T10:49:13.550Z,5.90
2019-04-22T10:51:42.691Z,6.28
2019-04-22T10:54:11.824Z,5.40
2019-04-22T10:56:41.190Z,5.97
2019-04-22T10:59:10.911Z,7.37
2019-04-22T11:01:40.427Z,6.45
2019-04-22T11:04:11.107Z,6.20
2019-04-22T11:06:50.327Z,5.53
2019-04-22T11:09:12.486Z,7.42
2019-04-22T11:11:48.759Z,6.50
2019-04-22T11:14:12.919Z,5.62
2019-04-22T11:16:43.505Z,6.95
2019-04-22T11:19:13.928Z,5.80
2019-04-22T11:21:47.046Z,5.67
2019-04-22T11:24:14.835Z,5.20
2019-04-22T11:26:45.189Z,7.30
2019-04-22T11:29:14.384Z,5.70
2019-04-22T11:31:44.352Z,6.12
2019-04-22T11:34:15.133Z,5.60
2019-04-22T11:36:44.991Z,7.28
2019-04-22T11:39:16.810Z,5.55
2019-04-22T11:41:46.421Z,5.17
2019-04-22T11:44:17.187Z,5.87
2019-04-22T11:46:47.486Z,5.33
2019-04-22T11:49:18.110Z,6.85
2019-04-22T11:51:47.814Z,5.30
2019-04-22T11:54:17.148Z,6.60
2019-04-22T11:56:47.371Z,6.33
2019-04-22T11:59:16.730Z,5.37
2019-04-22T12:01:46.805Z,5.87
2019-04-22T12:04:16.097Z,5.45
2019-04-22T12:06:46.157Z,5.65
2019-04-22T12:09:15.845Z,4.97
2019-04-22T12:11:45.015Z,5.05
2019-04-22T12:14:15.793Z,5.45
2019-04-22T12:16:45.581Z,4.97
2019-04-22T12:19:15.659Z,5.75
2019-04-22T12:21:45.085Z,5.20
2019-04-22T12:24:15.186Z,5.10
2019-04-22T12:26:44.640Z,5.17
2019-04-22T12:29:15.172Z,4.90
2019-04-22T12:31:45.250Z,5.37
2019-04-22T12:34:15.450Z,6.30
2019-04-22T12:36:44.905Z,5.37
2019-04-22T12:39:15.550Z,5.53
2019-04-22T12:41:46.262Z,4.92
2019-04-22T12:44:15.511Z,5.15
2019-04-22T12:46:46.012Z,5.28
2019-04-22T12:49:16.293Z,5.10
2019-04-22T12:51:47.192Z,5.25
2019-04-22T12:54:17.116Z,5.40
2019-04-22T12:56:47.820Z,4.95
2019-04-22T12:59:17.442Z,7.70
2019-04-22T13:01:46.896Z,5.83
2019-04-22T13:04:19.490Z,4.80
2019-04-22T13:06:48.026Z,5.65
2019-04-22T13:09:19.382Z,5.03
2019-04-22T13:11:48.996Z,5.47
2019-04-22T13:14:19.167Z,5.58
2019-04-22T13:16:49.165Z,5.30
2019-04-22T13:19:20.962Z,5.35
2019-04-22T13:21:51.003Z,5.20
2019-04-22T13:24:21.692Z,4.97
2019-04-22T13:26:52.851Z,5.95
2019-04-22T13:29:23.238Z,4.70
2019-04-22T13:31:53.134Z,5.30
2019-04-22T13:34:30.441Z,5.10
2019-04-22T13:36:54.665Z,4.70
2019-04-22T13:39:25.057Z,4.97
2019-04-22T13:41:59.947Z,5.10
2019-04-22T13:44:25.155Z,4.83
2019-04-22T13:47:11.580Z,5.08
2019-04-22T13:49:58.995Z,5.00
2019-04-22T13:52:33.288Z,4.95
2019-04-22T13:57:22.996Z,5.12
2019-04-22T13:59:36.884Z,5.15
2019-04-22T14:02:01.581Z,5.33
2019-04-22T14:04:36.731Z,4.45
2019-04-22T14:07:07.166Z,5.05
2019-04-22T14:09:38.014Z,5.53
2019-04-22T14:12:09.699Z,4.97
2019-04-22T14:14:40.711Z,5.80
2019-04-22T14:17:09.328Z,5.53
2019-04-22T14:19:39.137Z,5.20
2019-04-22T14:22:09.609Z,5.55
2019-04-22T14:24:40.664Z,5.37
2019-04-22T14:27:20.763Z,4.70
2019-04-22T14:29:41.956Z,5.50
2019-04-22T14:32:18.891Z,5.90
2019-04-22T14:34:42.784Z,4.90
2019-04-22T14:37:12.130Z,4.90
2019-04-22T14:39:41.972Z,5.35
2019-04-22T14:42:29.806Z,5.08
2019-04-22T14:45:18.945Z,5.28
2019-04-22T14:47:41.131Z,5.20
2019-04-22T14:50:05.277Z,4.85
2019-04-22T14:52:42.531Z,5.10
2019-04-22T14:55:00.871Z,5.45
2019-04-22T14:57:17.091Z,5.08
2019-04-22T14:59:48.159Z,5.53
2019-04-22T15:02:17.420Z,5.42
2019-04-22T15:04:47.773Z,4.85
2019-04-22T15:07:17.190Z,5.35
2019-04-22T15:09:46.345Z,5.20
2019-04-22T15:12:25.698Z,5.20
2019-04-22T15:14:47.831Z,5.58
2019-04-22T15:17:18.784Z,5.80
2019-04-22T15:19:49.722Z,4.72
2019-04-22T15:22:19.099Z,5.35
2019-04-22T15:24:48.221Z,5.42
2019-04-22T15:27:18.466Z,5.47
2019-04-22T15:29:49.330Z,5.58
2019-04-22T15:32:18.807Z,5.12
2019-04-22T15:34:49.127Z,5.05
2019-04-22T15:37:18.259Z,5.53
2019-04-22T15:39:47.873Z,5.22
2019-04-22T15:42:22.829Z,5.12
2019-04-22T15:44:48.075Z,5.42
2019-04-22T15:47:18.641Z,5.50
2019-04-22T15:49:48.141Z,5.10
2019-04-22T15:52:18.804Z,5.80
2019-04-22T15:54:51.762Z,5.75
2019-04-22T15:57:20.362Z,5.37
2019-04-22T16:00:06.714Z,5.80
2019-04-22T16:02:21.476Z,5.40
2019-04-22T16:04:50.685Z,5.42
2019-04-22T16:07:22.390Z,5.58
2019-04-22T16:09:51.939Z,4.85
2019-04-22T16:12:28.808Z,5.45
2019-04-22T16:14:55.013Z,4.97
2019-04-22T16:17:24.348Z,5.03
2019-04-22T16:19:55.189Z,5.60
2019-04-22T16:22:25.541Z,5.37
2019-04-22T16:25:00.540Z,6.05
2019-04-22T16:27:30.601Z,6.22
2019-04-22T16:30:01.185Z,5.42
2019-04-22T16:32:31.967Z,5.28
2019-04-22T16:35:01.358Z,5.37
2019-04-22T16:37:30.668Z,5.35
2019-04-22T16:40:00.858Z,5.03
2019-04-22T16:42:41.281Z,5.72
2019-04-22T16:45:01.882Z,5.30
2019-04-22T16:47:31.445Z,5.83
2019-04-22T16:50:01.783Z,6.22
2019-04-22T16:52:32.236Z,5.75
2019-04-22T16:55:01.390Z,6.30
2019-04-22T16:57:30.581Z,5.30
2019-04-22T17:00:00.446Z,5.90
2019-04-22T17:02:34.852Z,6.22
2019-04-22T17:05:07.594Z,5.40
2019-04-22T17:07:38.190Z,6.22
2019-04-22T17:10:08.299Z,5.37
2019-04-22T17:12:46.827Z,5.65
2019-04-22T17:15:12.169Z,5.75
2019-04-22T17:17:40.956Z,5.33
2019-04-22T17:20:11.338Z,5.80
2019-04-22T17:22:41.888Z,5.78
2019-04-22T17:25:12.059Z,6.10
2019-04-22T17:27:41.580Z,5.92
2019-04-22T17:30:10.742Z,6.20
2019-04-22T17:32:42.856Z,5.70
2019-04-22T17:35:12.327Z,9.80
2019-04-22T17:37:42.898Z,14.60
2019-04-22T17:40:30.399Z,14.45
2019-04-22T17:43:02.683Z,17.57
2019-04-22T17:45:41.574Z,8.23
2019-04-22T17:48:22.322Z,12.23
2019-04-22T17:51:11.238Z,9.63
2019-04-22T17:53:40.282Z,12.55
2019-04-22T17:56:08.584Z,11.75
2019-04-22T17:58:42.197Z,9.63
2019-04-22T18:01:10.724Z,10.43
2019-04-22T18:03:28.550Z,8.45
2019-04-22T18:05:58.257Z,9.40
2019-04-22T18:08:39.233Z,8.35
2019-04-22T18:11:17.025Z,11.08
2019-04-22T18:13:44.321Z,8.83
2019-04-22T18:16:18.439Z,10.78
2019-04-22T18:18:49.659Z,11.18
2019-04-22T18:21:13.427Z,9.83
2019-04-22T18:23:31.235Z,10.08
2019-04-22T18:26:18.891Z,9.58
2019-04-22T18:28:52.578Z,11.40
2019-04-22T18:31:15.671Z,10.18
2019-04-22T18:33:47.868Z,10.43
2019-04-22T18:36:19.652Z,10.63
2019-04-22T18:39:02.820Z,9.88
2019-04-22T18:41:17.947Z,11.75
2019-04-22T18:43:59.029Z,11.85
2019-04-22T18:46:28.878Z,10.18
2019-04-22T18:48:55.866Z,9.80
2019-04-22T18:54:09.897Z,10.60
2019-04-22T18:56:34.182Z,9.95
2019-04-22T18:58:57.155Z,8.35
2019-04-22T19:01:17.728Z,8.60
2019-04-22T19:03:58.247Z,10.00
2019-04-22T19:06:57.012Z,11.70
2019-04-22T19:09:17.184Z,8.18
2019-04-22T19:11:52.197Z,8.93
2019-04-22T19:14:15.678Z,10.85
2019-04-22T19:17:05.922Z,12.85
2019-04-22T19:21:46.890Z,11.15
2019-04-22T19:24:15.048Z,11.85
2019-04-22T19:29:23.387Z,11.88
2019-04-22T19:31:53.170Z,10.98
2019-04-22T19:34:23.390Z,12.55
2019-04-22T19:36:51.620Z,10.20
2019-04-22T19:39:21.328Z,8.83
2019-04-22T19:41:59.111Z,9.08
2019-04-22T19:44:27.027Z,9.58
2019-04-22T19:47:13.915Z,8.28
2019-04-22T19:49:32.958Z,9.43
2019-04-22T19:52:05.668Z,9.00
2019-04-22T19:54:31.808Z,8.63
2019-04-22T19:56:51.001Z,9.48
2019-04-22T19:59:23.561Z,11.40
2019-04-22T20:02:04.386Z,9.38
2019-04-22T20:04:47.398Z,9.60
2019-04-22T20:07:14.020Z,9.55
2019-04-22T20:09:50.550Z,8.48
2019-04-22T20:12:16.491Z,8.43
2019-04-22T20:14:46.449Z,9.90
2019-04-22T20:17:21.784Z,11.22
2019-04-22T20:19:55.410Z,9.28
2019-04-22T20:22:21.636Z,10.60
2019-04-22T20:24:44.788Z,8.73
2019-04-22T20:27:28.597Z,8.33
2019-04-22T20:29:55.107Z,9.58
2019-04-22T20:32:23.603Z,8.98
2019-04-22T20:34:57.658Z,9.28
2019-04-22T20:37:30.048Z,8.80
2019-04-22T20:39:53.556Z,9.20
2019-04-22T20:42:41.595Z,9.03
2019-04-22T20:44:56.928Z,8.60
2019-04-22T20:47:22.044Z,9.00
2019-04-22T20:50:04.486Z,9.80
2019-04-22T20:54:58.383Z,9.40
2019-04-22T20:57:34.742Z,10.23
2019-04-22T20:59:57.660Z,8.68
2019-04-22T21:02:27.787Z,9.75
2019-04-22T21:04:54.734Z,8.55
2019-04-22T21:07:31.422Z,9.05
2019-04-22T21:10:04.332Z,9.25
2019-04-22T21:12:29.272Z,8.50
2019-04-22T21:15:12.486Z,9.93
2019-04-22T21:17:42.778Z,9.55
2019-04-22T21:20:18.340Z,8.33
2019-04-22T21:22:43.470Z,9.50
2019-04-22T21:25:07.508Z,8.60
2019-04-22T21:27:45.676Z,9.23
2019-04-22T21:30:12.363Z,9.00
2019-04-22T21:32:45.417Z,8.58
2019-04-22T21:35:21.517Z,10.20
2019-04-22T21:37:49.983Z,8.53
2019-04-22T21:40:20.026Z,8.73
2019-04-22T21:42:53.101Z,8.35
2019-04-22T21:45:14.713Z,9.23
2019-04-22T21:47:57.440Z,9.00
2019-04-22T21:50:37.870Z,8.43
2019-04-22T21:52:56.853Z,8.65
2019-04-22T21:55:24.426Z,8.20
2019-04-22T21:58:04.853Z,8.60
2019-04-22T22:03:11.762Z,9.20
2019-04-22T22:05:28.833Z,8.88
2019-04-22T22:07:53.417Z,8.45
2019-04-22T22:10:37.131Z,9.28
2019-04-22T22:13:05.163Z,8.73
2019-04-22T22:15:37.631Z,8.85
2019-04-22T22:18:02.248Z,8.23
2019-04-22T22:20:40.977Z,8.58
2019-04-22T22:23:18.578Z,9.33
2019-04-22T22:25:33.498Z,8.00
2019-04-22T22:28:21.974Z,8.68
2019-04-22T22:33:10.520Z,8.33
2019-04-22T22:35:40.883Z,8.60
2019-04-22T22:38:11.986Z,10.00
2019-04-22T22:40:29.809Z,8.78
2019-04-22T22:42:58.976Z,8.80
2019-04-22T22:45:33.818Z,7.97
2019-04-22T22:48:21.766Z,10.25
2019-04-22T22:50:48.895Z,9.50
2019-04-22T22:53:29.100Z,8.25
2019-04-22T22:55:53.174Z,9.08
2019-04-22T22:58:23.747Z,9.25
2019-04-22T23:00:44.409Z,9.03
2019-04-22T23:03:40.281Z,8.48
2019-04-22T23:05:58.331Z,8.43
2019-04-22T23:08:26.201Z,8.93
2019-04-22T23:11:00.620Z,8.53
2019-04-22T23:13:31.437Z,8.38
2019-04-22T23:15:51.854Z,8.13
2019-04-22T23:18:09.922Z,8.35
2019-04-22T23:20:44.028Z,8.65
2019-04-22T23:23:36.012Z,8.03
2019-04-22T23:26:07.178Z,8.65
2019-04-22T23:28:30.063Z,9.23
2019-04-22T23:30:51.710Z,8.40
2019-04-22T23:33:49.028Z,8.90
2019-04-22T23:36:13.714Z,8.15
2019-04-22T23:38:56.668Z,8.93
2019-04-22T23:46:41.389Z,7.75
2019-04-22T23:49:15.528Z,9.58
2019-04-22T23:51:55.667Z,8.08
2019-04-22T23:54:42.518Z,8.83
2019-04-22T23:56:46.975Z,8.90
2019-04-22T23:59:42.774Z,8.20
